Terminal Aerodrome Forecast
Issued by NWS Bismarck, ND

Home | Current Version | Previous Version | Graphics & Text | Print | Product List | Glossary On
Versions: 1 2 3 4 5 6 7 8 9 10 11 12 13 14 15 16 17 18 19 20
000
FTUS43 KBIS 150523
TAFISN
TAF
KISN 150523Z 1506/1606 VRB03KT 6SM -SHRA OVC060
     FM150800 14004KT P6SM VCSH OVC050
     FM151000 14004KT P6SM OVC045
     FM151500 16004KT P6SM OVC030
     FM152100 09005KT P6SM BKN100=

USA.gov is the U.S. government's official web portal to all federal, state and local government web resources and services.